createdAt,value
2023-02-19T00:01:44.783Z,100297.18
2023-02-19T00:04:17.481Z,100297.52
2023-02-19T00:06:47.544Z,100294.71
2023-02-19T00:09:20.645Z,100290.09
2023-02-19T00:11:51.886Z,100288.05
2023-02-19T00:14:23.438Z,100290.73
2023-02-19T00:16:54.175Z,100285.90
2023-02-19T00:19:24.833Z,100281.14
2023-02-19T00:21:56.162Z,100283.11
2023-02-19T00:24:26.840Z,100279.92
2023-02-19T00:26:57.536Z,100279.70
2023-02-19T00:29:28.786Z,100276.52
2023-02-19T00:31:59.612Z,100272.67
2023-02-19T00:34:30.598Z,100273.92
2023-02-19T00:37:01.808Z,100272.95
2023-02-19T00:39:32.831Z,100275.88
2023-02-19T00:42:03.500Z,100271.75
2023-02-19T00:44:34.224Z,100270.71
2023-02-19T00:47:04.906Z,100267.14
2023-02-19T00:49:35.835Z,100261.80
2023-02-19T00:52:06.929Z,100265.60
2023-02-19T00:54:37.516Z,100259.98
2023-02-19T00:57:08.222Z,100263.75
2023-02-19T00:59:38.978Z,100259.29
2023-02-19T01:02:09.615Z,100258.91
2023-02-19T01:04:40.356Z,100252.03
2023-02-19T01:07:11.540Z,100250.95
2023-02-19T01:09:42.453Z,100251.11
2023-02-19T01:12:13.928Z,100249.56
2023-02-19T01:14:44.654Z,100242.20
2023-02-19T01:17:15.257Z,100238.92
2023-02-19T01:19:45.926Z,100234.91
2023-02-19T01:22:16.593Z,100224.98
2023-02-19T01:24:47.321Z,100219.59
2023-02-19T01:27:17.884Z,100215.60
2023-02-19T01:29:48.734Z,100212.00
2023-02-19T01:32:19.565Z,100211.75
2023-02-19T01:34:50.236Z,100204.84
2023-02-19T01:37:21.113Z,100195.46
2023-02-19T01:39:51.826Z,100184.59
2023-02-19T01:42:22.541Z,100186.83
2023-02-19T01:45:23.216Z,100178.06
2023-02-19T01:48:00.516Z,100178.05
2023-02-19T01:50:34.325Z,100179.30
2023-02-19T01:53:07.951Z,100178.28
2023-02-19T01:55:39.781Z,100175.70
2023-02-19T01:58:11.732Z,100168.73
2023-02-19T02:00:42.511Z,100168.67
2023-02-19T02:03:13.946Z,100169.72
2023-02-19T02:05:51.639Z,100167.12
2023-02-19T02:08:40.350Z,100163.95
2023-02-19T02:11:11.710Z,100161.38
2023-02-19T02:13:43.389Z,100159.11
2023-02-19T02:16:24.406Z,100156.23
2023-02-19T02:19:06.155Z,100155.98
2023-02-19T02:21:54.662Z,100157.52
2023-02-19T02:24:47.355Z,100153.97
2023-02-19T02:27:32.367Z,100147.86
2023-02-19T02:30:26.953Z,100144.75
2023-02-19T02:33:05.243Z,100146.03
2023-02-19T02:35:42.624Z,100143.24
2023-02-19T02:38:17.980Z,100139.68
2023-02-19T02:40:49.715Z,100129.00
2023-02-19T02:43:20.624Z,100119.37
2023-02-19T02:45:51.431Z,100121.30
2023-02-19T02:48:44.665Z,100120.11
2023-02-19T02:51:22.108Z,100116.51
2023-02-19T02:54:28.524Z,100115.81
2023-02-19T02:57:00.927Z,100109.16
2023-02-19T02:59:38.286Z,100107.77
2023-02-19T03:02:18.757Z,100097.17
2023-02-19T03:05:27.940Z,100094.86
2023-02-19T03:08:04.369Z,100091.15
2023-02-19T03:10:40.218Z,100092.09
2023-02-19T03:13:32.122Z,100090.62
2023-02-19T03:16:25.670Z,100088.86
2023-02-19T03:19:17.852Z,100082.45
2023-02-19T03:21:54.031Z,100079.75
2023-02-19T03:24:45.790Z,100073.51
2023-02-19T03:27:18.092Z,100066.80
2023-02-19T03:29:53.027Z,100064.16
2023-02-19T03:32:28.924Z,100065.26
2023-02-19T03:35:05.844Z,100063.29
2023-02-19T03:37:42.695Z,100065.61
2023-02-19T03:40:15.016Z,100059.64
2023-02-19T03:42:57.502Z,100056.46
2023-02-19T03:45:37.887Z,100058.69
2023-02-19T03:48:23.812Z,100060.45
2023-02-19T03:51:05.325Z,100051.29
2023-02-19T03:53:48.552Z,100045.91
2023-02-19T03:56:27.592Z,100039.88
2023-02-19T03:59:03.220Z,100040.77
2023-02-19T04:01:40.508Z,100036.98
2023-02-19T04:04:17.973Z,100038.95
2023-02-19T04:06:55.527Z,100032.80
2023-02-19T04:09:29.696Z,100027.82
2023-02-19T04:12:06.291Z,100028.32
2023-02-19T04:14:40.903Z,100026.94
2023-02-19T04:17:18.809Z,100028.42
2023-02-19T04:19:51.999Z,100025.24
2023-02-19T04:22:23.764Z,100019.34
2023-02-19T04:24:56.654Z,100016.95
2023-02-19T04:27:27.686Z,100018.83
2023-02-19T04:29:58.375Z,100016.52
2023-02-19T04:32:29.165Z,100012.73
2023-02-19T04:34:59.766Z,100014.48
2023-02-19T04:37:30.544Z,100018.17
2023-02-19T04:40:01.107Z,100010.90
2023-02-19T04:42:31.945Z,100002.40
2023-02-19T04:45:02.697Z,99999.15
2023-02-19T04:47:34.154Z,100004.18
2023-02-19T04:50:05.187Z,100000.23
2023-02-19T04:52:35.889Z,99999.63
2023-02-19T04:55:08.008Z,100003.95
2023-02-19T04:57:38.863Z,100005.56
2023-02-19T05:00:12.240Z,100013.98
2023-02-19T05:02:42.937Z,100007.19
2023-02-19T05:05:13.663Z,100007.38
2023-02-19T05:07:44.401Z,100007.18
2023-02-19T05:10:15.107Z,100007.61
2023-02-19T05:12:45.813Z,100012.59
2023-02-19T05:15:17.500Z,100019.92
2023-02-19T05:17:48.187Z,100026.55
2023-02-19T05:20:19.216Z,100025.77
2023-02-19T05:22:49.884Z,100030.84
2023-02-19T05:25:20.494Z,100029.69
2023-02-19T05:28:11.162Z,100020.73
2023-02-19T05:30:41.865Z,100025.55
2023-02-19T05:33:13.851Z,100018.69
2023-02-19T05:35:47.150Z,100021.16
2023-02-19T05:38:19.141Z,100020.98
2023-02-19T05:40:50.047Z,100020.66
2023-02-19T05:43:20.733Z,100019.31
2023-02-19T05:45:51.392Z,100019.08
2023-02-19T05:48:22.028Z,100014.56
2023-02-19T05:50:52.761Z,100011.44
2023-02-19T05:53:23.418Z,100015.48
2023-02-19T05:55:54.117Z,100018.31
2023-02-19T05:58:25.093Z,100024.49
2023-02-19T06:00:56.218Z,100031.69
2023-02-19T06:03:27.049Z,100044.33
2023-02-19T06:05:57.713Z,100038.20
2023-02-19T06:08:28.462Z,100036.67
2023-02-19T06:10:59.334Z,100036.40
2023-02-19T06:13:30.129Z,100040.29
2023-02-19T06:16:01.008Z,100044.10
2023-02-19T06:18:31.789Z,100046.66
2023-02-19T06:21:05.340Z,100047.34
2023-02-19T06:23:36.132Z,100052.70
2023-02-19T06:26:17.695Z,100057.11
2023-02-19T06:28:50.247Z,100060.35
2023-02-19T06:31:22.094Z,100065.55
2023-02-19T06:33:53.130Z,100058.98
2023-02-19T06:36:24.286Z,100062.96
2023-02-19T06:38:54.940Z,100071.18
2023-02-19T06:41:25.575Z,100071.41
2023-02-19T06:43:57.999Z,100074.48
2023-02-19T06:46:28.864Z,100074.46
2023-02-19T06:48:59.715Z,100079.16
2023-02-19T06:51:32.678Z,100077.58
2023-02-19T06:54:03.604Z,100083.35
2023-02-19T06:56:36.307Z,100080.16
2023-02-19T06:59:08.631Z,100086.73
2023-02-19T07:01:40.420Z,100091.23
2023-02-19T07:04:16.312Z,100093.97
2023-02-19T07:06:51.738Z,100093.88
2023-02-19T07:09:23.591Z,100108.77
2023-02-19T07:11:54.338Z,100115.70
2023-02-19T07:14:25.193Z,100117.06
2023-02-19T07:16:55.956Z,100119.88
2023-02-19T07:19:26.669Z,100122.35
2023-02-19T07:21:57.353Z,100128.04
2023-02-19T07:24:28.120Z,100133.81
2023-02-19T07:26:58.800Z,100140.49
2023-02-19T07:29:29.473Z,100147.46
2023-02-19T07:32:00.186Z,100159.63
2023-02-19T07:34:31.059Z,100171.96
2023-02-19T07:37:01.800Z,100180.28
2023-02-19T07:39:32.809Z,100188.76
2023-02-19T07:42:03.443Z,100190.44
2023-02-19T07:44:36.115Z,100194.96
2023-02-19T07:47:06.819Z,100198.44
2023-02-19T07:49:38.061Z,100208.27
2023-02-19T07:52:09.034Z,100219.98
2023-02-19T07:54:39.875Z,100226.33
2023-02-19T07:57:10.616Z,100232.02
2023-02-19T07:59:41.446Z,100233.09
2023-02-19T08:02:35.795Z,100237.42
2023-02-19T08:05:07.908Z,100245.29
2023-02-19T08:07:38.924Z,100243.86
2023-02-19T08:10:28.417Z,100254.16
2023-02-19T08:13:18.206Z,100266.19
2023-02-19T08:15:50.338Z,100271.30
2023-02-19T08:18:22.967Z,100279.26
2023-02-19T08:20:54.307Z,100283.34
2023-02-19T08:23:25.256Z,100293.51
2023-02-19T08:25:58.817Z,100304.09
2023-02-19T08:28:30.584Z,100316.23
2023-02-19T08:31:04.540Z,100332.56
2023-02-19T08:33:35.857Z,100339.02
2023-02-19T08:36:10.427Z,100349.09
2023-02-19T08:38:41.616Z,100353.55
2023-02-19T08:41:14.626Z,100356.98
2023-02-19T08:43:45.996Z,100356.96
2023-02-19T08:46:17.334Z,100369.21
2023-02-19T08:48:48.281Z,100384.60
2023-02-19T08:51:19.177Z,100396.88
2023-02-19T08:53:49.917Z,100405.13
2023-02-19T08:56:20.664Z,100409.02
2023-02-19T08:58:51.273Z,100425.24
2023-02-19T09:01:22.110Z,100438.05
2023-02-19T09:03:54.015Z,100451.72
2023-02-19T09:06:25.131Z,100454.20
2023-02-19T09:08:55.927Z,100462.08
2023-02-19T09:11:26.547Z,100468.20
2023-02-19T09:13:58.501Z,100475.62
2023-02-19T09:16:29.309Z,100483.69
2023-02-19T09:19:00.209Z,100496.75
2023-02-19T09:21:30.897Z,100501.10
2023-02-19T09:24:01.586Z,100504.40
2023-02-19T09:26:32.263Z,100510.36
2023-02-19T09:29:02.918Z,100519.30
2023-02-19T09:31:35.267Z,100536.52
2023-02-19T09:34:07.099Z,100542.55
2023-02-19T09:36:37.955Z,100548.20
2023-02-19T09:39:12.444Z,100559.23
2023-02-19T09:41:49.699Z,100568.85
2023-02-19T09:44:26.744Z,100580.52
2023-02-19T09:46:59.710Z,100585.39
2023-02-19T09:49:30.294Z,100591.73
2023-02-19T09:52:05.115Z,100589.84
2023-02-19T09:54:37.770Z,100590.46
2023-02-19T09:57:15.164Z,100591.24
2023-02-19T09:59:49.989Z,100598.91
2023-02-19T10:02:23.225Z,100599.36
2023-02-19T10:04:54.861Z,100606.80
2023-02-19T10:07:27.981Z,100604.98
2023-02-19T10:10:03.083Z,100607.12
2023-02-19T10:12:35.190Z,100609.45
2023-02-19T10:15:13.325Z,100619.34
2023-02-19T10:17:44.216Z,100627.66
2023-02-19T10:20:18.852Z,100632.23
2023-02-19T10:22:49.979Z,100641.77
2023-02-19T10:25:20.739Z,100638.92
2023-02-19T10:27:51.538Z,100637.56
2023-02-19T10:30:25.150Z,100650.45
2023-02-19T10:33:05.843Z,100653.58
2023-02-19T10:35:40.099Z,100652.33
2023-02-19T10:38:17.877Z,100657.14
2023-02-19T10:40:49.554Z,100656.12
2023-02-19T10:43:33.020Z,100664.10
2023-02-19T10:46:07.292Z,100668.31
2023-02-19T10:48:42.016Z,100674.67
2023-02-19T10:51:21.865Z,100682.31
2023-02-19T10:54:04.320Z,100684.61
2023-02-19T10:56:35.088Z,100685.16
2023-02-19T10:59:28.441Z,100690.33
2023-02-19T11:02:03.916Z,100694.01
2023-02-19T11:04:38.245Z,100698.29
2023-02-19T11:07:18.838Z,100701.94
2023-02-19T11:09:53.827Z,100709.63
2023-02-19T11:12:30.570Z,100713.42
2023-02-19T11:15:05.616Z,100712.99
2023-02-19T11:17:36.967Z,100714.27
2023-02-19T11:20:15.958Z,100714.02
2023-02-19T11:22:49.293Z,100730.10
2023-02-19T11:25:25.911Z,100733.84
2023-02-19T11:28:07.226Z,100738.33
2023-02-19T11:30:42.573Z,100734.23
2023-02-19T11:33:28.213Z,100738.44
2023-02-19T11:36:26.281Z,100744.88
2023-02-19T11:38:58.787Z,100743.41
2023-02-19T11:41:46.518Z,100747.13
2023-02-19T11:44:31.410Z,100745.98
2023-02-19T11:47:07.063Z,100740.40
2023-02-19T11:49:50.208Z,100752.12
2023-02-19T11:52:30.857Z,100759.75
2023-02-19T11:55:14.727Z,100754.89
2023-02-19T11:57:48.565Z,100753.42
2023-02-19T12:00:26.163Z,100756.08
2023-02-19T12:03:19.042Z,100763.61
2023-02-19T12:06:05.804Z,100775.21
2023-02-19T12:08:59.690Z,100772.67
2023-02-19T12:11:45.012Z,100779.78
2023-02-19T12:14:57.886Z,100786.55
2023-02-19T12:17:44.484Z,100791.67
2023-02-19T12:20:25.767Z,100797.42
2023-02-19T12:23:14.541Z,100793.94
2023-02-19T12:25:55.551Z,100802.45
2023-02-19T12:28:47.460Z,100794.43
2023-02-19T12:31:47.510Z,100804.02
2023-02-19T12:34:41.048Z,100806.71
2023-02-19T12:37:31.375Z,100801.27
2023-02-19T12:40:16.568Z,100795.75
2023-02-19T12:43:00.779Z,100793.16
2023-02-19T12:45:37.574Z,100788.41
2023-02-19T12:48:15.841Z,100782.95
2023-02-19T12:50:50.483Z,100784.34
2023-02-19T12:53:39.603Z,100784.94
2023-02-19T12:56:16.002Z,100784.00
2023-02-19T12:58:51.054Z,100783.56
2023-02-19T13:01:27.251Z,100783.95
2023-02-19T13:04:19.019Z,100783.36
2023-02-19T13:06:54.166Z,100791.75
2023-02-19T13:09:30.928Z,100794.85
2023-02-19T13:12:08.896Z,100803.92
2023-02-19T13:14:43.983Z,100810.94
2023-02-19T13:17:22.515Z,100817.39
2023-02-19T13:19:57.932Z,100814.31
2023-02-19T13:23:18.672Z,100819.95
2023-02-19T13:26:08.082Z,100821.61
2023-02-19T13:29:05.970Z,100822.41
2023-02-19T13:31:56.424Z,100819.01
2023-02-19T13:34:42.330Z,100790.84
2023-02-19T13:37:20.220Z,100817.92
2023-02-19T13:39:52.505Z,100819.66
2023-02-19T13:42:33.000Z,100820.63
2023-02-19T13:45:08.516Z,100825.53
2023-02-19T13:48:03.558Z,100827.98
2023-02-19T13:50:36.009Z,100827.98
2023-02-19T13:53:44.725Z,100831.89
2023-02-19T13:56:42.191Z,100836.23
2023-02-19T13:59:45.046Z,100840.71
2023-02-19T14:02:57.877Z,100841.48
2023-02-19T14:06:00.548Z,100839.20
2023-02-19T14:09:03.585Z,100837.17
2023-02-19T14:12:07.551Z,100834.95
2023-02-19T14:14:40.176Z,100837.15
2023-02-19T14:17:43.526Z,100845.30
2023-02-19T14:20:45.037Z,100853.42
2023-02-19T14:23:24.347Z,100858.05
2023-02-19T14:26:03.228Z,100856.80
2023-02-19T14:28:47.131Z,100849.41
2023-02-19T14:31:33.055Z,100854.40
2023-02-19T14:34:15.111Z,100855.95
2023-02-19T14:36:51.575Z,100856.52
2023-02-19T14:39:26.688Z,100862.42
2023-02-19T14:42:07.050Z,100865.02
2023-02-19T14:44:48.855Z,100869.11
2023-02-19T14:47:23.153Z,100876.31
2023-02-19T14:49:56.474Z,100886.55
2023-02-19T14:52:32.199Z,100883.64
2023-02-19T14:55:08.575Z,100881.61
2023-02-19T14:57:45.479Z,100881.92
2023-02-19T15:00:28.269Z,100889.20
2023-02-19T15:03:00.125Z,100893.30
2023-02-19T15:05:34.500Z,100896.11
2023-02-19T15:08:24.129Z,100900.14
2023-02-19T15:10:55.861Z,100903.74
2023-02-19T15:14:01.858Z,100908.70
2023-02-19T15:16:39.316Z,100889.16
2023-02-19T15:19:33.021Z,100909.52
2023-02-19T15:22:19.655Z,100915.88
2023-02-19T15:25:04.022Z,100916.33
2023-02-19T15:27:50.695Z,100917.01
2023-02-19T15:33:36.694Z,100918.44
2023-02-19T15:36:37.448Z,100924.08
2023-02-19T15:39:44.874Z,100918.11
2023-02-19T15:42:38.191Z,100917.13
2023-02-19T15:45:34.380Z,100927.20
2023-02-19T15:48:17.452Z,100934.92
2023-02-19T15:50:56.566Z,100935.89
2023-02-19T15:53:31.263Z,100944.01
2023-02-19T15:56:08.358Z,100944.42
2023-02-19T15:58:43.841Z,100947.45
2023-02-19T16:01:21.822Z,100950.10
2023-02-19T16:03:54.115Z,100947.02
2023-02-19T16:06:26.497Z,100942.92
2023-02-19T16:09:05.998Z,100935.71
2023-02-19T16:11:40.564Z,100950.73
2023-02-19T16:14:28.096Z,100950.68
2023-02-19T16:17:02.050Z,100950.02
2023-02-19T16:19:43.956Z,100951.77
2023-02-19T16:22:18.428Z,100945.44
2023-02-19T16:24:54.046Z,100945.80
2023-02-19T16:27:36.321Z,100948.95
2023-02-19T16:30:28.229Z,100951.07
2023-02-19T16:33:23.506Z,100952.98
2023-02-19T16:35:54.473Z,100954.92
2023-02-19T16:38:25.548Z,100964.65
2023-02-19T16:41:12.049Z,100978.02
2023-02-19T16:43:44.279Z,100991.18
2023-02-19T16:46:15.813Z,100999.05
2023-02-19T16:48:47.366Z,101005.27
2023-02-19T16:51:25.233Z,101014.55
2023-02-19T16:53:56.257Z,101013.47
2023-02-19T16:56:27.553Z,101019.99
2023-02-19T16:58:58.768Z,101023.98
2023-02-19T17:01:30.454Z,101032.24
2023-02-19T17:04:04.519Z,101032.90
2023-02-19T17:06:39.517Z,101039.42
2023-02-19T17:09:09.874Z,101046.59
2023-02-19T17:11:41.033Z,101055.08
2023-02-19T17:14:12.201Z,101065.45
2023-02-19T17:16:43.582Z,101067.08
2023-02-19T17:19:16.770Z,101064.94
2023-02-19T17:21:46.743Z,101063.98
2023-02-19T17:24:18.024Z,101066.92
2023-02-19T17:26:49.142Z,101071.13
2023-02-19T17:29:22.791Z,101072.29
2023-02-19T17:31:54.026Z,101078.92
2023-02-19T17:34:24.991Z,101081.02
2023-02-19T17:36:56.165Z,101085.55
2023-02-19T17:39:28.023Z,101087.15
2023-02-19T17:42:02.110Z,101089.54
2023-02-19T17:44:33.322Z,101093.31
2023-02-19T17:47:04.780Z,101101.25
2023-02-19T17:49:36.336Z,101110.28
2023-02-19T17:52:07.854Z,101107.17
2023-02-19T17:54:38.574Z,101111.66
2023-02-19T17:57:09.308Z,101114.50
2023-02-19T17:59:40.150Z,101122.35
2023-02-19T18:02:11.094Z,101125.30
2023-02-19T18:04:42.678Z,101127.52
2023-02-19T18:07:13.486Z,101114.70
2023-02-19T18:09:44.356Z,101114.79
2023-02-19T18:12:15.813Z,101115.70
2023-02-19T18:14:48.749Z,101121.65
2023-02-19T18:17:25.595Z,101126.94
2023-02-19T18:19:56.483Z,101101.90
2023-02-19T18:22:29.488Z,101131.42
2023-02-19T18:25:00.941Z,101137.00
2023-02-19T18:27:31.605Z,101135.79
2023-02-19T18:30:02.480Z,101137.84
2023-02-19T18:32:33.489Z,101137.72
2023-02-19T18:35:05.182Z,101141.06
2023-02-19T18:37:36.041Z,101146.29
2023-02-19T18:40:08.920Z,101146.70
2023-02-19T18:42:42.938Z,101147.73
2023-02-19T18:45:15.107Z,101147.30
2023-02-19T18:47:49.310Z,101152.13
2023-02-19T18:50:22.108Z,101153.65
2023-02-19T18:52:53.227Z,101156.31
2023-02-19T18:55:23.917Z,101152.28
2023-02-19T18:57:56.165Z,101159.69
2023-02-19T19:00:31.496Z,101159.20
2023-02-19T19:03:06.498Z,101159.38
2023-02-19T19:05:39.758Z,101161.63
2023-02-19T19:08:10.831Z,101160.84
2023-02-19T19:10:43.392Z,101157.17
2023-02-19T19:13:14.118Z,101158.80
2023-02-19T19:15:53.167Z,101160.50
2023-02-19T19:18:25.096Z,101167.33
2023-02-19T19:21:03.538Z,101170.28
2023-02-19T19:23:34.258Z,101172.70
2023-02-19T19:26:07.324Z,101174.63
2023-02-19T19:28:36.408Z,101178.80
2023-02-19T19:31:07.698Z,101174.82
2023-02-19T19:33:38.517Z,101170.74
2023-02-19T19:36:11.562Z,101168.39
2023-02-19T19:38:42.362Z,101166.48
2023-02-19T19:41:16.886Z,101169.16
2023-02-19T19:43:47.992Z,101170.02
2023-02-19T19:46:20.639Z,101171.04
2023-02-19T19:48:52.878Z,101176.94
2023-02-19T19:51:23.793Z,101182.16
2023-02-19T19:53:54.746Z,101179.80
2023-02-19T19:56:25.550Z,101178.46
2023-02-19T19:58:56.184Z,101177.61
2023-02-19T20:01:26.968Z,101178.51
2023-02-19T20:03:57.657Z,101181.72
2023-02-19T20:06:31.806Z,101179.08
2023-02-19T20:09:02.505Z,101180.19
2023-02-19T20:11:33.182Z,101183.75
2023-02-19T20:14:03.989Z,101180.61
2023-02-19T20:16:34.660Z,101180.75
2023-02-19T20:19:06.167Z,101184.17
2023-02-19T20:21:37.358Z,101182.89
2023-02-19T20:24:08.963Z,101179.43
2023-02-19T20:26:39.601Z,101179.02
2023-02-19T20:29:11.244Z,101178.17
2023-02-19T20:31:48.881Z,101177.53
2023-02-19T20:34:20.218Z,101176.07
2023-02-19T20:36:51.244Z,101173.46
2023-02-19T20:39:28.679Z,101167.54
2023-02-19T20:42:00.944Z,101166.55
2023-02-19T20:44:31.909Z,101165.69
2023-02-19T20:47:03.001Z,101171.00
2023-02-19T20:49:34.472Z,101172.00
2023-02-19T20:52:08.355Z,101179.34
2023-02-19T20:54:39.420Z,101182.45
2023-02-19T20:57:10.162Z,101187.80
2023-02-19T20:59:41.213Z,101193.57
2023-02-19T21:02:18.664Z,101198.83
2023-02-19T21:04:49.529Z,101199.42
2023-02-19T21:07:20.591Z,101207.25
2023-02-19T21:09:52.066Z,101217.42
2023-02-19T21:12:23.427Z,101224.11
2023-02-19T21:14:54.085Z,101219.78
2023-02-19T21:17:24.828Z,101218.48
2023-02-19T21:19:55.651Z,101222.51
2023-02-19T21:22:26.363Z,101224.98
2023-02-19T21:24:57.410Z,101228.42
2023-02-19T21:27:28.283Z,101236.83
2023-02-19T21:29:58.962Z,101240.08
2023-02-19T21:32:29.645Z,101238.23
2023-02-19T21:35:00.507Z,101240.81
2023-02-19T21:37:31.294Z,101247.56
2023-02-19T21:40:02.110Z,101246.31
2023-02-19T21:42:32.922Z,101246.92
2023-02-19T21:45:03.737Z,101250.19
2023-02-19T21:47:34.669Z,101247.19
2023-02-19T21:50:07.697Z,101247.85
2023-02-19T21:52:38.499Z,101245.30
2023-02-19T21:55:09.917Z,101251.73
2023-02-19T21:57:41.012Z,101244.64
2023-02-19T22:00:13.575Z,101244.45
2023-02-19T22:02:44.360Z,101244.23
2023-02-19T22:05:15.103Z,101245.63
2023-02-19T22:07:45.860Z,101244.25
2023-02-19T22:10:16.764Z,101239.73
2023-02-19T22:12:47.714Z,101236.02
2023-02-19T22:15:18.589Z,101233.98
2023-02-19T22:17:49.282Z,101235.70
2023-02-19T22:20:21.662Z,101231.87
2023-02-19T22:22:52.273Z,101227.21
2023-02-19T22:25:23.137Z,101225.25
2023-02-19T22:27:53.821Z,101214.75
2023-02-19T22:30:24.594Z,101215.23
2023-02-19T22:32:55.513Z,101209.89
2023-02-19T22:35:27.028Z,101206.33
2023-02-19T22:37:57.697Z,101206.64
2023-02-19T22:40:28.336Z,101212.35
2023-02-19T22:42:59.011Z,101212.08
2023-02-19T22:45:29.696Z,101207.15
2023-02-19T22:48:00.457Z,101203.29
2023-02-19T22:50:31.271Z,101203.44
2023-02-19T22:53:01.987Z,101207.83
2023-02-19T22:55:32.712Z,101207.04
2023-02-19T22:58:03.499Z,101210.11
2023-02-19T23:00:34.246Z,101199.95
2023-02-19T23:03:04.931Z,101194.74
2023-02-19T23:05:35.558Z,101193.33
2023-02-19T23:08:06.589Z,101189.75
2023-02-19T23:10:37.294Z,101178.41
2023-02-19T23:13:07.922Z,101180.58
2023-02-19T23:15:38.604Z,101177.86
2023-02-19T23:18:09.334Z,101173.49
2023-02-19T23:20:40.313Z,101178.72
2023-02-19T23:23:10.938Z,101175.36
2023-02-19T23:25:41.534Z,101172.23
2023-02-19T23:28:12.270Z,101162.98
2023-02-19T23:30:42.983Z,101159.33
2023-02-19T23:33:13.982Z,101162.76
2023-02-19T23:35:44.816Z,101160.14
2023-02-19T23:38:15.652Z,101159.73
2023-02-19T23:40:46.458Z,101157.52
2023-02-19T23:43:17.711Z,101161.60
2023-02-19T23:45:48.483Z,101164.73
2023-02-19T23:48:19.261Z,101165.20
2023-02-19T23:50:50.110Z,101154.64
2023-02-19T23:53:21.276Z,101143.45
2023-02-19T23:55:52.774Z,101135.86
2023-02-19T23:58:23.446Z,101127.66
